createdAt,value
2019-03-10T00:00:32.394Z,10.08
2019-03-10T00:01:32.390Z,10.17
2019-03-10T00:02:32.389Z,10.14
2019-03-10T00:03:32.355Z,10.26
2019-03-10T00:04:32.349Z,10.17
2019-03-10T00:05:32.336Z,10.23
2019-03-10T00:06:32.338Z,10.26
2019-03-10T00:07:32.335Z,10.20
2019-03-10T00:08:32.305Z,10.18
2019-03-10T00:09:32.316Z,10.26
2019-03-10T00:10:32.284Z,10.11
2019-03-10T00:11:32.272Z,10.15
2019-03-10T00:12:32.291Z,10.15
2019-03-10T00:13:32.251Z,10.23
2019-03-10T00:14:32.240Z,10.23
2019-03-10T00:15:32.230Z,10.22
2019-03-10T00:16:32.218Z,10.20
2019-03-10T00:17:32.232Z,10.33
2019-03-10T00:18:32.198Z,10.30
2019-03-10T00:19:32.198Z,10.27
2019-03-10T00:20:32.175Z,10.25
2019-03-10T00:21:32.164Z,10.22
2019-03-10T00:22:32.188Z,10.23
2019-03-10T00:23:32.142Z,10.26
2019-03-10T00:24:32.133Z,10.27
2019-03-10T00:25:32.159Z,10.25
2019-03-10T00:26:32.110Z,10.23
2019-03-10T00:27:32.100Z,10.20
2019-03-10T00:28:32.116Z,10.25
2019-03-10T00:29:32.078Z,10.22
2019-03-10T00:30:32.111Z,10.29
2019-03-10T00:31:32.064Z,10.34
2019-03-10T00:32:32.046Z,10.33
2019-03-10T00:33:32.054Z,10.23
2019-03-10T00:34:32.025Z,10.23
2019-03-10T00:35:32.017Z,10.33
2019-03-10T00:36:32.009Z,10.30
2019-03-10T00:37:32.013Z,10.23
2019-03-10T00:38:32.014Z,10.30
2019-03-10T00:39:31.970Z,10.29
2019-03-10T00:40:39.002Z,10.18
2019-03-10T00:41:31.949Z,10.27
2019-03-10T00:42:32.158Z,10.27
2019-03-10T00:43:31.947Z,10.14
2019-03-10T00:44:31.919Z,10.17
2019-03-10T00:45:31.917Z,10.23
2019-03-10T00:46:31.895Z,10.15
2019-03-10T00:47:31.907Z,10.25
2019-03-10T00:48:31.890Z,10.23
2019-03-10T00:49:31.868Z,10.27
2019-03-10T00:50:31.858Z,10.26
2019-03-10T00:51:34.163Z,10.25
2019-03-10T00:52:31.829Z,10.22
2019-03-10T00:53:31.841Z,10.23
2019-03-10T00:54:31.807Z,10.25
2019-03-10T00:55:31.796Z,10.18
2019-03-10T00:56:31.796Z,10.27
2019-03-10T00:57:31.839Z,10.22
2019-03-10T00:58:31.786Z,10.25
2019-03-10T00:59:31.754Z,10.14
2019-03-10T01:00:31.743Z,10.20
2019-03-10T01:01:31.731Z,10.25
2019-03-10T01:02:31.727Z,10.25
2019-03-10T01:03:31.738Z,10.17
2019-03-10T01:04:31.704Z,10.14
2019-03-10T01:05:31.703Z,10.20
2019-03-10T01:06:31.685Z,10.25
2019-03-10T01:07:31.667Z,10.17
2019-03-10T01:08:31.689Z,10.22
2019-03-10T01:09:31.710Z,10.26
2019-03-10T01:10:31.650Z,10.23
2019-03-10T01:11:31.626Z,10.17
2019-03-10T01:12:31.615Z,10.14
2019-03-10T01:13:31.628Z,10.14
2019-03-10T01:14:31.596Z,10.23
2019-03-10T01:15:31.591Z,10.18
2019-03-10T01:16:31.575Z,10.20
2019-03-10T01:17:31.560Z,10.22
2019-03-10T01:18:31.580Z,10.23
2019-03-10T01:19:31.540Z,10.22
2019-03-10T01:20:31.529Z,10.22
2019-03-10T01:21:31.515Z,10.18
2019-03-10T01:22:31.507Z,10.18
2019-03-10T01:23:31.522Z,10.26
2019-03-10T01:24:31.489Z,10.15
2019-03-10T01:25:31.476Z,10.14
2019-03-10T01:26:31.464Z,10.18
2019-03-10T01:27:31.450Z,10.14
2019-03-10T01:28:31.465Z,10.17
2019-03-10T01:29:31.430Z,10.20
2019-03-10T01:30:31.420Z,10.18
2019-03-10T01:31:31.443Z,10.18
2019-03-10T01:32:31.408Z,10.17
2019-03-10T01:33:31.406Z,10.15
2019-03-10T01:34:31.377Z,10.01
2019-03-10T01:35:31.369Z,10.18
2019-03-10T01:36:31.357Z,10.15
2019-03-10T01:37:31.413Z,10.12
2019-03-10T01:38:31.352Z,10.09
2019-03-10T01:39:31.319Z,10.11
2019-03-10T01:40:31.312Z,9.99
2019-03-10T01:41:31.308Z,10.17
2019-03-10T01:42:31.287Z,10.07
2019-03-10T01:43:31.298Z,10.07
2019-03-10T01:44:31.267Z,10.09
2019-03-10T01:45:31.272Z,10.07
2019-03-10T01:46:31.244Z,10.09
2019-03-10T01:47:31.239Z,10.08
2019-03-10T01:48:31.246Z,10.04
2019-03-10T01:49:31.216Z,10.12
2019-03-10T01:50:31.206Z,10.09
2019-03-10T01:51:31.201Z,10.12
2019-03-10T01:52:31.188Z,10.05
2019-03-10T01:53:31.195Z,10.07
2019-03-10T01:54:31.160Z,10.07
2019-03-10T01:55:31.149Z,10.08
2019-03-10T01:56:31.148Z,10.04
2019-03-10T01:57:31.127Z,10.02
2019-03-10T01:58:31.141Z,10.04
2019-03-10T01:59:31.108Z,10.05
2019-03-10T02:00:31.110Z,9.97
2019-03-10T02:01:31.152Z,10.08
2019-03-10T02:02:31.070Z,10.11
2019-03-10T02:03:31.086Z,9.99
2019-03-10T02:04:31.144Z,10.04
2019-03-10T02:05:31.038Z,9.99
2019-03-10T02:06:31.037Z,10.02
2019-03-10T02:07:31.020Z,10.07
2019-03-10T02:08:31.005Z,10.01
2019-03-10T02:09:31.019Z,10.07
2019-03-10T02:10:31.019Z,10.04
2019-03-10T02:11:30.977Z,10.02
2019-03-10T02:12:30.967Z,10.02
2019-03-10T02:13:30.962Z,10.07
2019-03-10T02:14:30.963Z,10.02
2019-03-10T02:15:30.936Z,9.90
2019-03-10T02:16:30.918Z,9.86
2019-03-10T02:17:30.971Z,9.94
2019-03-10T02:18:30.898Z,9.86
2019-03-10T02:19:30.912Z,9.89
2019-03-10T02:20:30.888Z,9.93
2019-03-10T02:21:30.863Z,9.84
2019-03-10T02:22:30.853Z,9.79
2019-03-10T02:23:30.847Z,9.86
2019-03-10T02:24:30.864Z,9.86
2019-03-10T02:25:30.821Z,9.93
2019-03-10T02:26:30.809Z,9.89
2019-03-10T02:27:30.803Z,10.01
2019-03-10T02:28:30.788Z,9.93
2019-03-10T02:29:30.799Z,9.93
2019-03-10T02:30:30.852Z,9.93
2019-03-10T02:31:30.756Z,9.91
2019-03-10T02:32:30.759Z,9.90
2019-03-10T02:33:30.741Z,9.87
2019-03-10T02:34:30.744Z,9.86
2019-03-10T02:35:30.737Z,9.83
2019-03-10T02:36:30.710Z,9.84
2019-03-10T02:37:30.706Z,9.93
2019-03-10T02:38:30.692Z,9.87
2019-03-10T02:39:30.692Z,9.86
2019-03-10T02:40:30.658Z,9.83
2019-03-10T02:41:30.648Z,9.90
2019-03-10T02:42:30.643Z,9.87
2019-03-10T02:43:30.638Z,9.91
2019-03-10T02:44:30.654Z,9.90
2019-03-10T02:45:30.717Z,9.89
2019-03-10T02:46:30.591Z,9.79
2019-03-10T02:47:30.582Z,9.89
2019-03-10T02:48:30.574Z,9.89
2019-03-10T02:49:30.588Z,9.79
2019-03-10T02:50:30.557Z,9.84
2019-03-10T02:51:30.539Z,9.79
2019-03-10T02:52:30.533Z,9.83
2019-03-10T02:53:30.586Z,9.74
2019-03-10T02:54:30.545Z,9.74
2019-03-10T02:55:30.498Z,9.68
2019-03-10T02:56:30.489Z,9.72
2019-03-10T02:57:30.476Z,9.71
2019-03-10T02:58:30.462Z,9.69
2019-03-10T02:59:30.473Z,9.69
2019-03-10T03:00:30.444Z,9.76
2019-03-10T03:01:30.431Z,9.68
2019-03-10T03:02:30.422Z,9.65
2019-03-10T03:03:30.412Z,9.65
2019-03-10T03:04:30.416Z,9.48
2019-03-10T03:05:30.387Z,9.56
2019-03-10T03:06:30.377Z,9.51
2019-03-10T03:07:30.364Z,9.53
2019-03-10T03:08:30.367Z,9.50
2019-03-10T03:09:30.368Z,9.50
2019-03-10T03:10:30.332Z,9.54
2019-03-10T03:11:30.322Z,9.56
2019-03-10T03:12:30.311Z,9.48
2019-03-10T03:13:30.315Z,9.46
2019-03-10T03:14:30.308Z,9.54
2019-03-10T03:15:30.289Z,9.51
2019-03-10T03:16:30.286Z,9.56
2019-03-10T03:17:30.266Z,9.54
2019-03-10T03:18:30.247Z,9.57
2019-03-10T03:19:30.257Z,9.53
2019-03-10T03:20:30.225Z,9.56
2019-03-10T03:21:42.436Z,9.58
2019-03-10T03:22:31.231Z,9.56
2019-03-10T03:23:30.201Z,9.53
2019-03-10T03:24:30.202Z,9.64
2019-03-10T03:25:30.180Z,9.57
2019-03-10T03:26:30.164Z,9.64
2019-03-10T03:27:30.148Z,9.61
2019-03-10T03:28:30.138Z,9.56
2019-03-10T03:29:30.148Z,9.50
2019-03-10T03:30:30.127Z,9.51
2019-03-10T03:31:30.115Z,9.57
2019-03-10T03:32:30.119Z,9.48
2019-03-10T03:33:30.111Z,9.51
2019-03-10T03:34:30.095Z,9.46
2019-03-10T03:35:30.063Z,9.50
2019-03-10T03:36:30.056Z,9.39
2019-03-10T03:37:30.047Z,9.33
2019-03-10T03:38:30.031Z,9.18
2019-03-10T03:39:30.058Z,9.17
2019-03-10T03:40:30.017Z,9.23
2019-03-10T03:41:29.996Z,9.20
2019-03-10T03:42:29.995Z,9.18
2019-03-10T03:43:30.005Z,9.28
2019-03-10T03:44:30.000Z,9.21
2019-03-10T03:45:29.970Z,9.23
2019-03-10T03:46:29.965Z,9.18
2019-03-10T03:47:29.933Z,9.21
2019-03-10T03:48:29.934Z,9.13
2019-03-10T03:49:29.918Z,9.23
2019-03-10T03:50:29.938Z,9.23
2019-03-10T03:51:29.890Z,9.15
2019-03-10T03:52:29.910Z,9.24
2019-03-10T03:53:29.870Z,9.15
2019-03-10T03:54:29.864Z,9.17
2019-03-10T03:55:29.879Z,9.15
2019-03-10T03:56:29.840Z,9.02
2019-03-10T03:57:29.826Z,9.04
2019-03-10T03:58:29.821Z,9.11
2019-03-10T03:59:29.804Z,8.96
2019-03-10T04:00:29.814Z,8.91
2019-03-10T04:01:29.793Z,8.98
2019-03-10T04:02:29.790Z,8.92
2019-03-10T04:03:29.775Z,9.11
2019-03-10T04:04:29.750Z,8.94
2019-03-10T04:05:29.760Z,9.01
2019-03-10T04:06:29.735Z,8.99
2019-03-10T04:07:29.722Z,9.01
2019-03-10T04:08:29.707Z,9.01
2019-03-10T04:09:29.702Z,8.94
2019-03-10T04:10:29.709Z,8.87
2019-03-10T04:11:29.678Z,8.89
2019-03-10T04:12:29.734Z,8.89
2019-03-10T04:13:29.672Z,8.86
2019-03-10T04:14:29.643Z,8.87
2019-03-10T04:15:29.650Z,8.83
2019-03-10T04:16:29.621Z,8.81
2019-03-10T04:17:29.615Z,8.95
2019-03-10T04:18:29.600Z,8.87
2019-03-10T04:19:29.601Z,8.87
2019-03-10T04:20:29.609Z,8.84
2019-03-10T04:21:29.571Z,8.74
2019-03-10T04:22:29.558Z,8.79
2019-03-10T04:23:29.548Z,8.71
2019-03-10T04:24:29.536Z,8.68
2019-03-10T04:25:29.567Z,8.59
2019-03-10T04:26:29.522Z,8.55
2019-03-10T04:27:29.515Z,8.56
2019-03-10T04:28:29.494Z,8.56
2019-03-10T04:29:29.486Z,8.53
2019-03-10T04:30:29.491Z,8.47
2019-03-10T04:31:29.469Z,8.44
2019-03-10T04:32:29.485Z,8.36
2019-03-10T04:33:29.444Z,8.40
2019-03-10T04:34:29.444Z,8.34
2019-03-10T04:35:29.457Z,8.44
2019-03-10T04:36:29.410Z,8.38
2019-03-10T04:37:29.402Z,8.36
2019-03-10T04:38:29.391Z,8.33
2019-03-10T04:39:29.383Z,8.33
2019-03-10T04:40:29.388Z,8.34
2019-03-10T04:41:29.356Z,8.28
2019-03-10T04:42:29.347Z,8.30
2019-03-10T04:43:29.335Z,8.30
2019-03-10T04:44:29.325Z,8.20
2019-03-10T04:45:29.344Z,8.26
2019-03-10T04:46:29.304Z,8.26
2019-03-10T04:47:29.293Z,8.28
2019-03-10T04:48:29.285Z,8.20
2019-03-10T04:49:29.282Z,8.25
2019-03-10T04:50:29.287Z,8.28
2019-03-10T04:51:29.252Z,8.23
2019-03-10T04:52:29.246Z,8.23
2019-03-10T04:53:29.232Z,8.19
2019-03-10T04:54:29.223Z,8.19
2019-03-10T04:55:29.231Z,8.11
2019-03-10T04:56:29.201Z,8.04
2019-03-10T04:57:29.191Z,8.04
2019-03-10T04:58:29.184Z,8.04
2019-03-10T04:59:29.172Z,8.01
2019-03-10T05:00:29.177Z,7.93
2019-03-10T05:01:29.151Z,7.90
2019-03-10T05:02:29.139Z,7.82
2019-03-10T05:03:29.125Z,7.82
2019-03-10T05:04:31.451Z,7.92
2019-03-10T05:05:29.131Z,7.89
2019-03-10T05:06:29.096Z,7.89
2019-03-10T05:07:29.086Z,7.90
2019-03-10T05:08:29.081Z,7.92
2019-03-10T05:09:29.065Z,7.97
2019-03-10T05:10:29.074Z,8.05
2019-03-10T05:11:29.048Z,8.05
2019-03-10T05:12:29.050Z,8.15
2019-03-10T05:13:29.024Z,8.11
2019-03-10T05:14:29.018Z,8.18
2019-03-10T05:15:29.022Z,8.23
2019-03-10T05:16:28.991Z,8.12
2019-03-10T05:17:28.982Z,8.00
2019-03-10T05:18:28.972Z,8.05
2019-03-10T05:19:28.963Z,8.07
2019-03-10T05:20:28.969Z,8.02
2019-03-10T05:21:28.940Z,8.04
2019-03-10T05:22:28.930Z,8.00
2019-03-10T05:23:28.919Z,7.95
2019-03-10T05:24:28.908Z,7.89
2019-03-10T05:25:28.924Z,7.83
2019-03-10T05:26:28.888Z,7.82
2019-03-10T05:27:28.878Z,7.85
2019-03-10T05:28:28.867Z,7.74
2019-03-10T05:29:28.858Z,7.75
2019-03-10T05:30:28.872Z,7.79
2019-03-10T05:31:28.843Z,7.71
2019-03-10T05:32:28.828Z,7.75
2019-03-10T05:33:28.814Z,7.71
2019-03-10T05:34:28.826Z,7.71
2019-03-10T05:35:28.794Z,7.68
2019-03-10T05:36:28.803Z,7.63
2019-03-10T05:37:28.779Z,7.57
2019-03-10T05:38:28.778Z,7.55
2019-03-10T05:39:28.759Z,7.52
2019-03-10T05:40:28.743Z,7.57
2019-03-10T05:41:28.755Z,7.53
2019-03-10T05:42:28.722Z,7.50
2019-03-10T05:43:28.713Z,7.48
2019-03-10T05:44:28.730Z,7.48
2019-03-10T05:45:28.691Z,7.46
2019-03-10T05:46:28.709Z,7.53
2019-03-10T05:47:28.671Z,7.55
2019-03-10T05:48:28.659Z,7.49
2019-03-10T05:49:28.649Z,7.34
2019-03-10T05:50:28.655Z,7.32
2019-03-10T05:51:28.650Z,7.35
2019-03-10T05:52:28.618Z,7.43
2019-03-10T05:53:28.614Z,7.37
2019-03-10T05:54:28.598Z,7.31
2019-03-10T05:55:28.588Z,7.24
2019-03-10T05:56:28.597Z,7.31
2019-03-10T05:57:28.576Z,7.28
2019-03-10T05:58:28.555Z,7.23
2019-03-10T05:59:28.545Z,7.27
2019-03-10T06:00:28.536Z,7.25
2019-03-10T06:01:28.545Z,7.16
2019-03-10T06:02:28.514Z,7.23
2019-03-10T06:03:28.509Z,7.20
2019-03-10T06:04:28.513Z,7.23
2019-03-10T06:05:28.483Z,7.17
2019-03-10T06:06:28.496Z,7.13
2019-03-10T06:07:28.475Z,7.15
2019-03-10T06:08:28.453Z,7.15
2019-03-10T06:09:28.441Z,7.21
2019-03-10T06:10:28.453Z,7.17
2019-03-10T06:11:28.444Z,7.03
2019-03-10T06:12:28.411Z,7.20
2019-03-10T06:13:28.400Z,7.20
2019-03-10T06:14:28.393Z,7.24
2019-03-10T06:15:28.402Z,7.16
2019-03-10T06:16:28.390Z,7.10
2019-03-10T06:17:28.368Z,7.16
2019-03-10T06:18:28.349Z,7.15
2019-03-10T06:19:28.342Z,7.15
2019-03-10T06:20:28.340Z,7.23
2019-03-10T06:21:28.346Z,7.21
2019-03-10T06:22:28.309Z,7.25
2019-03-10T06:23:28.298Z,7.23
2019-03-10T06:24:28.290Z,7.25
2019-03-10T06:25:28.275Z,7.23
2019-03-10T06:26:28.288Z,7.34
2019-03-10T06:27:28.257Z,7.35
2019-03-10T06:28:28.244Z,7.25
2019-03-10T06:29:28.230Z,7.17
2019-03-10T06:30:28.318Z,7.21
2019-03-10T06:31:28.234Z,7.23
2019-03-10T06:32:28.210Z,7.16
2019-03-10T06:33:28.191Z,7.16
2019-03-10T06:34:28.195Z,7.16
2019-03-10T06:35:28.172Z,7.21
2019-03-10T06:36:28.177Z,7.20
2019-03-10T06:37:28.149Z,7.20
2019-03-10T06:38:28.145Z,7.16
2019-03-10T06:39:28.138Z,7.17
2019-03-10T06:40:32.012Z,7.20
2019-03-10T06:41:28.132Z,7.21
2019-03-10T06:42:28.097Z,7.20
2019-03-10T06:43:28.091Z,7.06
2019-03-10T06:44:28.076Z,7.13
2019-03-10T06:45:28.067Z,7.10
2019-03-10T06:46:28.083Z,7.10
2019-03-10T06:47:28.044Z,7.12
2019-03-10T06:48:28.034Z,7.10
2019-03-10T06:49:28.025Z,7.05
2019-03-10T06:50:28.015Z,7.10
2019-03-10T06:51:28.026Z,7.09
2019-03-10T06:52:28.000Z,6.95
2019-03-10T06:53:27.984Z,7.06
2019-03-10T06:54:27.970Z,6.98
2019-03-10T06:55:27.962Z,7.09
2019-03-10T06:56:28.024Z,7.06
2019-03-10T06:57:27.939Z,7.05
2019-03-10T06:58:27.931Z,7.06
2019-03-10T06:59:27.919Z,7.02
2019-03-10T07:00:27.906Z,6.95
2019-03-10T07:01:27.918Z,7.03
2019-03-10T07:02:27.885Z,7.15
2019-03-10T07:03:27.882Z,7.12
2019-03-10T07:04:27.880Z,7.23
2019-03-10T07:05:27.855Z,7.25
2019-03-10T07:06:27.876Z,7.16
2019-03-10T07:07:27.833Z,7.20
2019-03-10T07:08:27.837Z,7.25
2019-03-10T07:09:27.815Z,7.35
2019-03-10T07:10:27.808Z,7.34
2019-03-10T07:11:27.833Z,7.25
2019-03-10T07:12:27.783Z,7.20
2019-03-10T07:13:27.770Z,7.25
2019-03-10T07:14:27.763Z,7.25
2019-03-10T07:15:27.763Z,7.27
2019-03-10T07:16:27.783Z,7.31
2019-03-10T07:17:27.733Z,7.28
2019-03-10T07:18:27.729Z,7.17
2019-03-10T07:19:27.713Z,7.17
2019-03-10T07:20:27.696Z,7.27
2019-03-10T07:21:27.693Z,7.31
2019-03-10T07:22:27.708Z,7.32
2019-03-10T07:23:27.669Z,7.34
2019-03-10T07:24:27.657Z,7.40
2019-03-10T07:25:27.648Z,7.42
2019-03-10T07:26:27.645Z,7.39
2019-03-10T07:27:27.643Z,7.40
2019-03-10T07:28:27.614Z,7.42
2019-03-10T07:29:27.604Z,7.35
2019-03-10T07:30:27.594Z,7.50
2019-03-10T07:31:27.600Z,7.43
2019-03-10T07:32:27.594Z,7.53
2019-03-10T07:33:27.564Z,7.57
2019-03-10T07:34:27.560Z,7.58
2019-03-10T07:35:27.555Z,7.53
2019-03-10T07:36:27.534Z,7.69
2019-03-10T07:37:27.543Z,7.72
2019-03-10T07:38:27.512Z,7.74
2019-03-10T07:39:27.527Z,7.82
2019-03-10T07:40:27.496Z,7.85
2019-03-10T07:41:27.485Z,7.87
2019-03-10T07:42:27.500Z,7.87
2019-03-10T07:43:27.456Z,7.86
2019-03-10T07:44:27.448Z,7.93
2019-03-10T07:45:27.465Z,7.83
2019-03-10T07:46:27.430Z,7.83
2019-03-10T07:47:27.441Z,7.90
2019-03-10T07:48:27.410Z,7.95
2019-03-10T07:49:27.410Z,7.93
2019-03-10T07:50:27.399Z,7.90
2019-03-10T07:51:27.376Z,7.89
2019-03-10T07:52:27.384Z,7.89
2019-03-10T07:53:27.361Z,7.89
2019-03-10T07:54:27.350Z,7.90
2019-03-10T07:55:27.339Z,7.95
2019-03-10T07:56:27.324Z,7.92
2019-03-10T07:57:27.355Z,7.97
2019-03-10T07:58:27.311Z,8.00
2019-03-10T07:59:27.291Z,7.97
2019-03-10T08:00:27.286Z,8.02
2019-03-10T08:01:27.275Z,8.11
2019-03-10T08:02:27.278Z,8.15
2019-03-10T08:03:27.250Z,8.25
2019-03-10T08:04:27.238Z,8.29
2019-03-10T08:05:27.239Z,8.26
2019-03-10T08:06:27.217Z,8.33
2019-03-10T08:07:27.231Z,8.36
2019-03-10T08:08:27.200Z,8.37
2019-03-10T08:09:27.188Z,8.44
2019-03-10T08:10:27.176Z,8.52
2019-03-10T08:11:27.163Z,8.63
2019-03-10T08:12:27.178Z,8.98
2019-03-10T08:13:27.147Z,8.84
2019-03-10T08:14:27.141Z,8.79
2019-03-10T08:15:27.129Z,8.77
2019-03-10T08:16:27.112Z,8.77
2019-03-10T08:17:27.127Z,8.98
2019-03-10T08:18:27.091Z,9.21
2019-03-10T08:19:27.082Z,9.46
2019-03-10T08:20:27.071Z,9.68
2019-03-10T08:21:27.067Z,9.86
2019-03-10T08:22:27.070Z,9.91
2019-03-10T08:23:27.045Z,9.84
2019-03-10T08:24:27.046Z,9.91
2019-03-10T08:25:27.016Z,9.89
2019-03-10T08:26:27.020Z,9.94
2019-03-10T08:27:27.024Z,9.76
2019-03-10T08:28:26.997Z,9.93
2019-03-10T08:29:26.979Z,10.59
2019-03-10T08:30:26.972Z,10.68
2019-03-10T08:31:26.952Z,10.96
2019-03-10T08:32:26.966Z,11.28
2019-03-10T08:33:26.947Z,11.52
2019-03-10T08:34:26.928Z,11.75
2019-03-10T08:35:26.914Z,11.46
2019-03-10T08:36:26.899Z,10.97
2019-03-10T08:37:26.908Z,10.74
2019-03-10T08:38:26.882Z,10.78
2019-03-10T08:39:26.865Z,10.86
2019-03-10T08:40:26.856Z,10.88
2019-03-10T08:41:26.852Z,10.78
2019-03-10T08:42:26.873Z,10.78
2019-03-10T08:43:26.822Z,10.79
2019-03-10T08:44:26.809Z,10.86
2019-03-10T08:45:26.812Z,10.71
2019-03-10T08:46:26.792Z,10.85
2019-03-10T08:47:26.803Z,10.94
2019-03-10T08:48:26.768Z,10.92
2019-03-10T08:49:26.768Z,11.06
2019-03-10T08:50:26.750Z,11.11
2019-03-10T08:51:26.739Z,11.24
2019-03-10T08:52:26.752Z,11.22
2019-03-10T08:53:26.712Z,11.32
2019-03-10T08:54:26.703Z,11.43
2019-03-10T08:55:26.709Z,11.58
2019-03-10T08:56:26.679Z,11.78
2019-03-10T08:57:26.817Z,12.49
2019-03-10T08:58:26.671Z,14.06
2019-03-10T08:59:26.654Z,15.27
2019-03-10T09:00:26.649Z,15.57
2019-03-10T09:01:26.627Z,15.17
2019-03-10T09:02:26.672Z,14.45
2019-03-10T09:03:26.655Z,14.21
2019-03-10T09:04:26.595Z,13.97
2019-03-10T09:05:26.595Z,13.81
2019-03-10T09:06:26.574Z,13.77
2019-03-10T09:07:26.560Z,13.69
2019-03-10T09:08:26.569Z,13.63
2019-03-10T09:09:26.541Z,13.60
2019-03-10T09:10:26.531Z,13.45
2019-03-10T09:11:26.518Z,13.44
2019-03-10T09:12:26.512Z,13.32
2019-03-10T09:13:26.512Z,13.33
2019-03-10T09:14:26.480Z,13.26
2019-03-10T09:15:26.467Z,13.15
2019-03-10T09:16:26.465Z,13.22
2019-03-10T09:17:26.448Z,13.00
2019-03-10T09:18:26.476Z,13.03
2019-03-10T09:19:26.424Z,13.07
2019-03-10T09:20:26.414Z,13.01
2019-03-10T09:21:26.401Z,12.90
2019-03-10T09:22:26.398Z,12.96
2019-03-10T09:23:26.403Z,12.97
2019-03-10T09:24:26.366Z,12.87
2019-03-10T09:25:26.358Z,12.92
2019-03-10T09:26:26.353Z,12.90
2019-03-10T09:27:28.368Z,13.00
2019-03-10T09:28:26.351Z,12.96
2019-03-10T09:29:26.311Z,13.03
2019-03-10T09:30:26.300Z,13.08
2019-03-10T09:31:26.312Z,12.96
2019-03-10T09:32:26.281Z,13.03
2019-03-10T09:33:26.294Z,12.95
2019-03-10T09:34:26.261Z,12.93
2019-03-10T09:35:26.247Z,12.93
2019-03-10T09:36:26.233Z,12.83
2019-03-10T09:37:26.233Z,12.82
2019-03-10T09:38:26.238Z,12.82
2019-03-10T09:39:26.198Z,12.78
2019-03-10T09:40:26.195Z,12.85
2019-03-10T09:41:26.180Z,12.87
2019-03-10T09:42:26.167Z,12.93
2019-03-10T09:43:26.174Z,12.87
2019-03-10T09:44:26.152Z,12.93
2019-03-10T09:45:26.142Z,12.78
2019-03-10T09:46:26.124Z,12.82
2019-03-10T09:47:26.113Z,12.96
2019-03-10T09:48:26.115Z,13.05
2019-03-10T09:49:26.088Z,13.14
2019-03-10T09:50:26.080Z,13.12
2019-03-10T09:51:26.066Z,12.96
2019-03-10T09:52:26.054Z,13.01
2019-03-10T09:53:26.061Z,13.08
2019-03-10T09:54:26.033Z,13.05
2019-03-10T09:55:26.018Z,12.96
2019-03-10T09:56:26.017Z,13.00
2019-03-10T09:57:25.998Z,13.05
2019-03-10T09:58:26.006Z,12.97
2019-03-10T09:59:25.978Z,12.96
2019-03-10T10:00:25.967Z,13.08
2019-03-10T10:01:25.952Z,12.97
2019-03-10T10:02:25.950Z,12.92
2019-03-10T10:03:25.952Z,13.04
2019-03-10T10:04:25.918Z,13.10
2019-03-10T10:05:25.910Z,13.32
2019-03-10T10:06:25.903Z,13.48
2019-03-10T10:07:25.896Z,14.10
2019-03-10T10:08:25.895Z,14.42
2019-03-10T10:09:25.870Z,14.47
2019-03-10T10:10:25.854Z,14.83
2019-03-10T10:11:25.856Z,15.28
2019-03-10T10:12:25.829Z,15.90
2019-03-10T10:13:25.837Z,16.61
2019-03-10T10:14:25.812Z,16.42
2019-03-10T10:15:25.803Z,18.27
2019-03-10T10:16:25.786Z,20.01
2019-03-10T10:17:25.776Z,21.01
2019-03-10T10:18:25.784Z,21.09
2019-03-10T10:19:25.754Z,21.96
2019-03-10T10:20:26.835Z,20.59
2019-03-10T10:21:25.737Z,21.82
2019-03-10T10:22:25.722Z,22.00
2019-03-10T10:23:25.730Z,21.37
2019-03-10T10:24:25.697Z,21.88
2019-03-10T10:25:25.687Z,22.94
2019-03-10T10:26:25.687Z,21.35
2019-03-10T10:27:25.673Z,19.88
2019-03-10T10:28:25.681Z,19.00
2019-03-10T10:29:25.646Z,18.23
2019-03-10T10:30:25.633Z,17.77
2019-03-10T10:31:25.622Z,17.15
2019-03-10T10:32:25.614Z,16.70
2019-03-10T10:33:25.629Z,16.12
2019-03-10T10:34:25.592Z,15.86
2019-03-10T10:35:25.595Z,15.47
2019-03-10T10:36:25.569Z,15.19
2019-03-10T10:37:25.560Z,15.06
2019-03-10T10:38:25.614Z,15.02
2019-03-10T10:39:25.549Z,14.94
2019-03-10T10:40:25.523Z,14.80
2019-03-10T10:41:25.515Z,14.69
2019-03-10T10:42:25.512Z,14.60
2019-03-10T10:43:25.491Z,14.37
2019-03-10T10:44:25.508Z,14.24
2019-03-10T10:45:25.474Z,14.03
2019-03-10T10:46:25.469Z,13.96
2019-03-10T10:47:25.464Z,13.91
2019-03-10T10:48:25.438Z,13.78
2019-03-10T10:49:25.452Z,13.63
2019-03-10T10:50:25.431Z,13.48
2019-03-10T10:51:25.405Z,13.36
2019-03-10T10:52:25.404Z,13.22
2019-03-10T10:53:25.383Z,13.01
2019-03-10T10:54:25.420Z,13.01
2019-03-10T10:55:25.381Z,13.03
2019-03-10T10:56:25.356Z,12.90
2019-03-10T10:57:25.359Z,13.14
2019-03-10T10:58:25.347Z,13.39
2019-03-10T10:59:25.337Z,13.46
2019-03-10T11:00:25.311Z,13.54
2019-03-10T11:01:25.296Z,13.91
2019-03-10T11:02:25.284Z,14.00
2019-03-10T11:03:25.275Z,14.64
2019-03-10T11:04:25.315Z,16.17
2019-03-10T11:05:25.252Z,18.18
2019-03-10T11:06:25.249Z,19.78
2019-03-10T11:07:25.231Z,20.97
2019-03-10T11:08:25.220Z,20.74
2019-03-10T11:09:25.227Z,21.56
2019-03-10T11:10:25.198Z,22.46
2019-03-10T11:11:25.185Z,23.38
2019-03-10T11:12:25.184Z,22.92
2019-03-10T11:13:25.166Z,22.77
2019-03-10T11:14:25.175Z,21.07
2019-03-10T11:15:25.146Z,22.49
2019-03-10T11:16:25.132Z,23.51
2019-03-10T11:17:25.120Z,24.35
2019-03-10T11:18:25.111Z,24.90
2019-03-10T11:19:25.130Z,24.84
2019-03-10T11:20:25.091Z,23.22
2019-03-10T11:21:25.079Z,23.31
2019-03-10T11:22:25.077Z,22.25
2019-03-10T11:23:25.058Z,20.69
2019-03-10T11:24:25.065Z,19.92
2019-03-10T11:25:25.043Z,21.56
2019-03-10T11:26:25.031Z,21.31
2019-03-10T11:27:25.024Z,21.67
2019-03-10T11:28:25.015Z,21.42
2019-03-10T11:29:25.011Z,21.35
2019-03-10T11:30:24.984Z,21.32
2019-03-10T11:31:24.992Z,21.04
2019-03-10T11:32:24.968Z,22.22
2019-03-10T11:33:27.440Z,22.62
2019-03-10T11:34:24.959Z,22.83
2019-03-10T11:35:24.925Z,23.72
2019-03-10T11:36:24.917Z,22.83
2019-03-10T11:37:24.914Z,23.13
2019-03-10T11:38:24.911Z,23.23
2019-03-10T11:39:24.902Z,21.59
2019-03-10T11:40:24.872Z,19.84
2019-03-10T11:41:33.452Z,18.81
2019-03-10T11:42:25.853Z,18.12
2019-03-10T11:43:24.852Z,17.75
2019-03-10T11:44:24.848Z,17.54
2019-03-10T11:45:24.818Z,17.15
2019-03-10T11:46:24.808Z,16.73
2019-03-10T11:47:24.798Z,16.31
2019-03-10T11:48:24.816Z,15.93
2019-03-10T11:49:24.801Z,15.62
2019-03-10T11:50:24.808Z,15.54
2019-03-10T11:51:24.755Z,15.50
2019-03-10T11:52:24.744Z,15.01
2019-03-10T11:53:25.723Z,14.88
2019-03-10T11:54:24.744Z,14.64
2019-03-10T11:55:24.819Z,14.42
2019-03-10T11:56:24.714Z,14.32
2019-03-10T11:57:24.688Z,14.18
2019-03-10T11:58:24.694Z,14.25
2019-03-10T11:59:24.690Z,14.18
2019-03-10T12:00:24.658Z,14.27
2019-03-10T12:01:24.653Z,14.18
2019-03-10T12:02:24.634Z,14.27
2019-03-10T12:03:24.648Z,14.39
2019-03-10T12:04:24.647Z,14.81
2019-03-10T12:05:24.612Z,14.75
2019-03-10T12:06:24.593Z,14.95
2019-03-10T12:07:24.605Z,14.83
2019-03-10T12:08:24.579Z,15.11
2019-03-10T12:09:24.583Z,15.10
2019-03-10T12:10:24.550Z,15.03
2019-03-10T12:11:24.543Z,14.83
2019-03-10T12:12:24.528Z,15.51
2019-03-10T12:13:24.535Z,15.25
2019-03-10T12:14:24.527Z,15.02
2019-03-10T12:15:24.496Z,15.35
2019-03-10T12:16:24.485Z,15.17
2019-03-10T12:17:24.474Z,14.92
2019-03-10T12:18:24.468Z,14.78
2019-03-10T12:19:24.501Z,14.96
2019-03-10T12:20:24.440Z,14.83
2019-03-10T12:21:24.430Z,14.58
2019-03-10T12:22:24.421Z,14.32
2019-03-10T12:23:24.411Z,14.18
2019-03-10T12:24:24.399Z,14.15
2019-03-10T12:25:24.439Z,14.61
2019-03-10T12:26:24.387Z,14.55
2019-03-10T12:27:24.362Z,14.25
2019-03-10T12:28:24.357Z,14.32
2019-03-10T12:29:24.342Z,14.22
2019-03-10T12:30:24.353Z,14.22
2019-03-10T12:31:24.322Z,14.06
2019-03-10T12:32:24.312Z,13.97
2019-03-10T12:33:24.301Z,13.89
2019-03-10T12:34:24.300Z,13.89
2019-03-10T12:35:33.925Z,13.78
2019-03-10T12:36:25.317Z,13.91
2019-03-10T12:37:24.273Z,13.77
2019-03-10T12:38:24.249Z,13.63
2019-03-10T12:39:24.232Z,13.66
2019-03-10T12:40:24.243Z,13.66
2019-03-10T12:41:24.210Z,13.46
2019-03-10T12:42:24.211Z,13.46
2019-03-10T12:43:24.191Z,13.41
2019-03-10T12:44:24.188Z,13.59
2019-03-10T12:45:24.194Z,13.41
2019-03-10T12:46:24.155Z,13.41
2019-03-10T12:47:24.146Z,13.44
2019-03-10T12:48:24.134Z,13.36
2019-03-10T12:49:24.125Z,13.33
2019-03-10T12:50:24.151Z,13.38
2019-03-10T12:51:24.103Z,13.48
2019-03-10T12:52:24.093Z,13.54
2019-03-10T12:53:24.079Z,13.51
2019-03-10T12:54:24.070Z,13.36
2019-03-10T12:55:24.082Z,13.28
2019-03-10T12:56:24.056Z,13.20
2019-03-10T12:57:24.034Z,13.20
2019-03-10T12:58:24.032Z,13.22
2019-03-10T12:59:24.022Z,13.19
2019-03-10T13:00:24.028Z,13.08
2019-03-10T13:01:23.998Z,13.12
2019-03-10T13:02:23.989Z,13.81
2019-03-10T13:03:23.969Z,14.81
2019-03-10T13:04:23.973Z,15.38